sensor_id;sensor_type;location;lat;lon;timestamp;P1;durP1;ratioP1;P2;durP2;ratioP2
15381;SDS011;7789;51.364;12.358;2023-06-10T00:02:30;4.60;;;2.80;;
15381;SDS011;7789;51.364;12.358;2023-06-10T00:07:34;3.85;;;2.58;;
15381;SDS011;7789;51.364;12.358;2023-06-10T00:12:41;6.03;;;2.83;;
15381;SDS011;7789;51.364;12.358;2023-06-10T00:17:46;6.63;;;2.78;;
15381;SDS011;7789;51.364;12.358;2023-06-10T00:22:50;2.92;;;2.63;;
15381;SDS011;7789;51.364;12.358;2023-06-10T00:27:56;5.30;;;2.97;;
15381;SDS011;7789;51.364;12.358;2023-06-10T00:33:00;4.72;;;3.00;;
15381;SDS011;7789;51.364;12.358;2023-06-10T00:38:04;5.13;;;3.05;;
15381;SDS011;7789;51.364;12.358;2023-06-10T00:43:09;4.15;;;2.72;;
15381;SDS011;7789;51.364;12.358;2023-06-10T00:48:14;4.13;;;2.58;;
15381;SDS011;7789;51.364;12.358;2023-06-10T00:53:21;4.95;;;2.92;;
15381;SDS011;7789;51.364;12.358;2023-06-10T00:58:30;6.32;;;3.13;;
15381;SDS011;7789;51.364;12.358;2023-06-10T01:03:35;5.43;;;3.58;;
15381;SDS011;7789;51.364;12.358;2023-06-10T01:08:43;10.50;;;3.10;;
15381;SDS011;7789;51.364;12.358;2023-06-10T01:13:55;4.70;;;2.80;;
15381;SDS011;7789;51.364;12.358;2023-06-10T01:19:01;6.20;;;3.38;;
15381;SDS011;7789;51.364;12.358;2023-06-10T01:24:08;6.40;;;4.07;;
15381;SDS011;7789;51.364;12.358;2023-06-10T01:29:14;6.28;;;3.72;;
15381;SDS011;7789;51.364;12.358;2023-06-10T01:34:23;9.10;;;4.60;;
15381;SDS011;7789;51.364;12.358;2023-06-10T01:39:31;7.80;;;5.10;;
15381;SDS011;7789;51.364;12.358;2023-06-10T01:44:36;9.80;;;4.82;;
15381;SDS011;7789;51.364;12.358;2023-06-10T01:49:46;7.80;;;5.15;;
15381;SDS011;7789;51.364;12.358;2023-06-10T01:54:51;10.73;;;4.35;;
15381;SDS011;7789;51.364;12.358;2023-06-10T01:59:56;7.25;;;4.05;;
15381;SDS011;7789;51.364;12.358;2023-06-10T02:05:01;5.10;;;3.85;;
15381;SDS011;7789;51.364;12.358;2023-06-10T02:10:09;7.55;;;3.83;;
15381;SDS011;7789;51.364;12.358;2023-06-10T02:15:13;7.43;;;4.35;;
15381;SDS011;7789;51.364;12.358;2023-06-10T02:20:17;7.28;;;3.75;;
15381;SDS011;7789;51.364;12.358;2023-06-10T02:25:26;7.30;;;3.90;;
15381;SDS011;7789;51.364;12.358;2023-06-10T02:30:30;4.45;;;3.47;;
15381;SDS011;7789;51.364;12.358;2023-06-10T02:35:35;5.57;;;4.22;;
15381;SDS011;7789;51.364;12.358;2023-06-10T02:40:41;4.55;;;3.63;;
15381;SDS011;7789;51.364;12.358;2023-06-10T02:45:45;7.32;;;4.32;;
15381;SDS011;7789;51.364;12.358;2023-06-10T02:50:52;5.13;;;3.78;;
15381;SDS011;7789;51.364;12.358;2023-06-10T02:55:58;4.38;;;3.97;;
15381;SDS011;7789;51.364;12.358;2023-06-10T03:01:14;10.32;;;3.75;;
15381;SDS011;7789;51.364;12.358;2023-06-10T03:06:19;10.95;;;4.15;;
15381;SDS011;7789;51.364;12.358;2023-06-10T03:11:39;15.57;;;4.22;;
15381;SDS011;7789;51.364;12.358;2023-06-10T03:16:42;8.10;;;3.65;;
15381;SDS011;7789;51.364;12.358;2023-06-10T03:21:49;5.97;;;3.78;;
15381;SDS011;7789;51.364;12.358;2023-06-10T03:26:59;6.18;;;3.97;;
15381;SDS011;7789;51.364;12.358;2023-06-10T03:32:03;8.10;;;3.78;;
15381;SDS011;7789;51.364;12.358;2023-06-10T03:37:07;7.55;;;3.55;;
15381;SDS011;7789;51.364;12.358;2023-06-10T03:42:12;6.60;;;3.95;;
15381;SDS011;7789;51.364;12.358;2023-06-10T03:47:18;7.20;;;3.88;;
15381;SDS011;7789;51.364;12.358;2023-06-10T03:52:22;5.65;;;3.53;;
15381;SDS011;7789;51.364;12.358;2023-06-10T03:57:27;5.97;;;3.80;;
15381;SDS011;7789;51.364;12.358;2023-06-10T04:02:31;6.65;;;3.60;;
15381;SDS011;7789;51.364;12.358;2023-06-10T04:07:36;7.85;;;3.83;;
15381;SDS011;7789;51.364;12.358;2023-06-10T04:12:42;8.35;;;3.78;;
15381;SDS011;7789;51.364;12.358;2023-06-10T04:17:48;5.28;;;3.55;;
15381;SDS011;7789;51.364;12.358;2023-06-10T04:22:52;4.85;;;3.50;;
15381;SDS011;7789;51.364;12.358;2023-06-10T04:27:58;7.95;;;3.88;;
15381;SDS011;7789;51.364;12.358;2023-06-10T04:33:03;5.57;;;4.05;;
15381;SDS011;7789;51.364;12.358;2023-06-10T04:38:08;6.93;;;4.05;;
15381;SDS011;7789;51.364;12.358;2023-06-10T04:43:13;5.60;;;3.92;;
15381;SDS011;7789;51.364;12.358;2023-06-10T04:48:18;7.32;;;3.83;;
15381;SDS011;7789;51.364;12.358;2023-06-10T04:53:21;6.60;;;3.67;;
15381;SDS011;7789;51.364;12.358;2023-06-10T04:58:27;6.43;;;3.78;;
15381;SDS011;7789;51.364;12.358;2023-06-10T05:03:32;5.00;;;3.55;;
15381;SDS011;7789;51.364;12.358;2023-06-10T05:08:36;5.40;;;3.45;;
15381;SDS011;7789;51.364;12.358;2023-06-10T05:13:43;7.10;;;3.53;;
15381;SDS011;7789;51.364;12.358;2023-06-10T05:18:46;8.05;;;3.70;;
15381;SDS011;7789;51.364;12.358;2023-06-10T05:23:50;8.00;;;2.85;;
15381;SDS011;7789;51.364;12.358;2023-06-10T05:28:57;5.75;;;3.25;;
15381;SDS011;7789;51.364;12.358;2023-06-10T05:34:02;3.90;;;2.88;;
15381;SDS011;7789;51.364;12.358;2023-06-10T05:39:05;7.18;;;3.78;;
15381;SDS011;7789;51.364;12.358;2023-06-10T05:44:13;5.22;;;3.53;;
15381;SDS011;7789;51.364;12.358;2023-06-10T05:49:17;7.70;;;4.10;;
15381;SDS011;7789;51.364;12.358;2023-06-10T05:54:20;6.55;;;3.28;;
15381;SDS011;7789;51.364;12.358;2023-06-10T05:59:32;6.40;;;3.75;;
15381;SDS011;7789;51.364;12.358;2023-06-10T06:04:35;9.95;;;4.18;;
15381;SDS011;7789;51.364;12.358;2023-06-10T06:09:40;10.13;;;4.25;;
15381;SDS011;7789;51.364;12.358;2023-06-10T06:14:49;5.40;;;3.70;;
15381;SDS011;7789;51.364;12.358;2023-06-10T06:19:53;6.80;;;3.80;;
15381;SDS011;7789;51.364;12.358;2023-06-10T06:24:56;7.07;;;4.32;;
15381;SDS011;7789;51.364;12.358;2023-06-10T06:30:02;9.05;;;5.88;;
15381;SDS011;7789;51.364;12.358;2023-06-10T06:35:07;4.90;;;3.20;;
15381;SDS011;7789;51.364;12.358;2023-06-10T06:40:12;5.28;;;3.53;;
15381;SDS011;7789;51.364;12.358;2023-06-10T06:45:18;5.97;;;3.72;;
15381;SDS011;7789;51.364;12.358;2023-06-10T06:50:23;6.85;;;4.50;;
15381;SDS011;7789;51.364;12.358;2023-06-10T06:55:28;7.32;;;4.22;;
15381;SDS011;7789;51.364;12.358;2023-06-10T07:00:33;8.13;;;4.45;;
15381;SDS011;7789;51.364;12.358;2023-06-10T07:05:37;7.70;;;4.85;;
15381;SDS011;7789;51.364;12.358;2023-06-10T07:10:41;7.85;;;4.32;;
15381;SDS011;7789;51.364;12.358;2023-06-10T07:15:54;7.78;;;4.43;;
15381;SDS011;7789;51.364;12.358;2023-06-10T07:20:59;5.97;;;4.47;;
15381;SDS011;7789;51.364;12.358;2023-06-10T07:26:03;7.07;;;4.75;;
15381;SDS011;7789;51.364;12.358;2023-06-10T07:31:09;7.07;;;4.10;;
15381;SDS011;7789;51.364;12.358;2023-06-10T07:36:13;7.10;;;5.00;;
15381;SDS011;7789;51.364;12.358;2023-06-10T07:41:17;7.70;;;4.63;;
15381;SDS011;7789;51.364;12.358;2023-06-10T07:46:23;8.75;;;4.93;;
15381;SDS011;7789;51.364;12.358;2023-06-10T07:51:32;8.50;;;5.00;;
15381;SDS011;7789;51.364;12.358;2023-06-10T07:56:38;7.70;;;5.15;;
15381;SDS011;7789;51.364;12.358;2023-06-10T08:01:45;9.02;;;4.80;;
15381;SDS011;7789;51.364;12.358;2023-06-10T08:06:55;7.80;;;5.30;;
15381;SDS011;7789;51.364;12.358;2023-06-10T08:12:01;5.50;;;4.70;;
15381;SDS011;7789;51.364;12.358;2023-06-10T08:17:06;5.50;;;5.00;;
15381;SDS011;7789;51.364;12.358;2023-06-10T08:22:14;6.35;;;4.95;;
15381;SDS011;7789;51.364;12.358;2023-06-10T08:27:20;8.40;;;4.97;;
15381;SDS011;7789;51.364;12.358;2023-06-10T08:32:25;6.85;;;4.90;;
15381;SDS011;7789;51.364;12.358;2023-06-10T08:37:31;7.88;;;5.28;;
15381;SDS011;7789;51.364;12.358;2023-06-10T08:42:38;8.35;;;5.15;;
15381;SDS011;7789;51.364;12.358;2023-06-10T08:47:49;5.47;;;4.75;;
15381;SDS011;7789;51.364;12.358;2023-06-10T08:52:57;7.57;;;4.68;;
15381;SDS011;7789;51.364;12.358;2023-06-10T08:58:01;8.93;;;4.72;;
15381;SDS011;7789;51.364;12.358;2023-06-10T09:03:10;8.18;;;5.10;;
15381;SDS011;7789;51.364;12.358;2023-06-10T09:08:15;5.28;;;4.57;;
15381;SDS011;7789;51.364;12.358;2023-06-10T09:13:22;6.53;;;5.13;;
15381;SDS011;7789;51.364;12.358;2023-06-10T09:18:28;7.97;;;5.30;;
15381;SDS011;7789;51.364;12.358;2023-06-10T09:23:36;7.00;;;4.53;;
15381;SDS011;7789;51.364;12.358;2023-06-10T09:28:41;6.72;;;4.60;;
15381;SDS011;7789;51.364;12.358;2023-06-10T09:33:48;5.22;;;4.65;;
15381;SDS011;7789;51.364;12.358;2023-06-10T09:38:52;7.28;;;5.03;;
15381;SDS011;7789;51.364;12.358;2023-06-10T09:44:01;7.85;;;5.05;;
15381;SDS011;7789;51.364;12.358;2023-06-10T09:49:06;7.85;;;4.90;;
15381;SDS011;7789;51.364;12.358;2023-06-10T09:54:10;5.65;;;5.05;;
15381;SDS011;7789;51.364;12.358;2023-06-10T09:59:14;6.50;;;4.95;;
15381;SDS011;7789;51.364;12.358;2023-06-10T10:04:24;7.28;;;4.65;;
15381;SDS011;7789;51.364;12.358;2023-06-10T10:09:29;6.40;;;5.18;;
15381;SDS011;7789;51.364;12.358;2023-06-10T10:14:34;6.53;;;5.35;;
15381;SDS011;7789;51.364;12.358;2023-06-10T10:19:43;5.68;;;5.15;;
15381;SDS011;7789;51.364;12.358;2023-06-10T10:24:51;6.57;;;5.28;;
15381;SDS011;7789;51.364;12.358;2023-06-10T10:29:59;6.38;;;4.82;;
15381;SDS011;7789;51.364;12.358;2023-06-10T10:35:10;5.60;;;5.10;;
15381;SDS011;7789;51.364;12.358;2023-06-10T10:40:20;5.47;;;4.60;;
15381;SDS011;7789;51.364;12.358;2023-06-10T10:45:25;7.57;;;5.25;;
15381;SDS011;7789;51.364;12.358;2023-06-10T10:50:32;7.50;;;5.00;;
15381;SDS011;7789;51.364;12.358;2023-06-10T10:55:37;6.55;;;4.88;;
15381;SDS011;7789;51.364;12.358;2023-06-10T11:00:43;6.82;;;5.20;;
15381;SDS011;7789;51.364;12.358;2023-06-10T11:05:50;7.28;;;4.72;;
15381;SDS011;7789;51.364;12.358;2023-06-10T11:10:59;6.68;;;4.80;;
15381;SDS011;7789;51.364;12.358;2023-06-10T11:16:23;6.88;;;4.43;;
15381;SDS011;7789;51.364;12.358;2023-06-10T11:21:33;7.15;;;4.88;;
15381;SDS011;7789;51.364;12.358;2023-06-10T11:32:29;10.77;;;5.32;;
15381;SDS011;7789;51.364;12.358;2023-06-10T11:37:36;6.45;;;5.30;;
15381;SDS011;7789;51.364;12.358;2023-06-10T11:42:41;7.82;;;5.13;;
15381;SDS011;7789;51.364;12.358;2023-06-10T11:47:55;8.30;;;4.80;;
15381;SDS011;7789;51.364;12.358;2023-06-10T11:53:02;5.32;;;4.40;;
15381;SDS011;7789;51.364;12.358;2023-06-10T11:58:11;6.80;;;4.45;;
15381;SDS011;7789;51.364;12.358;2023-06-10T12:03:20;7.05;;;5.07;;
15381;SDS011;7789;51.364;12.358;2023-06-10T12:08:33;5.22;;;4.30;;
15381;SDS011;7789;51.364;12.358;2023-06-10T12:13:45;4.68;;;4.28;;
15381;SDS011;7789;51.364;12.358;2023-06-10T12:18:51;8.23;;;4.65;;
15381;SDS011;7789;51.364;12.358;2023-06-10T12:24:07;10.38;;;5.28;;
15381;SDS011;7789;51.364;12.358;2023-06-10T12:29:21;4.70;;;4.30;;
15381;SDS011;7789;51.364;12.358;2023-06-10T12:34:28;4.70;;;4.18;;
15381;SDS011;7789;51.364;12.358;2023-06-10T12:39:41;5.65;;;3.88;;
15381;SDS011;7789;51.364;12.358;2023-06-10T12:44:45;7.63;;;4.35;;
15381;SDS011;7789;51.364;12.358;2023-06-10T12:49:50;10.43;;;4.00;;
15381;SDS011;7789;51.364;12.358;2023-06-10T12:54:56;8.55;;;4.43;;
15381;SDS011;7789;51.364;12.358;2023-06-10T13:00:00;8.23;;;3.55;;
15381;SDS011;7789;51.364;12.358;2023-06-10T13:05:06;5.53;;;4.13;;
15381;SDS011;7789;51.364;12.358;2023-06-10T13:10:15;6.32;;;4.30;;
15381;SDS011;7789;51.364;12.358;2023-06-10T13:15:25;5.60;;;4.47;;
15381;SDS011;7789;51.364;12.358;2023-06-10T13:20:30;4.78;;;4.05;;
15381;SDS011;7789;51.364;12.358;2023-06-10T13:25:37;4.88;;;4.38;;
15381;SDS011;7789;51.364;12.358;2023-06-10T13:30:42;6.55;;;4.50;;
15381;SDS011;7789;51.364;12.358;2023-06-10T13:35:48;5.13;;;4.63;;
15381;SDS011;7789;51.364;12.358;2023-06-10T13:40:53;4.30;;;3.60;;
15381;SDS011;7789;51.364;12.358;2023-06-10T13:45:56;5.75;;;4.28;;
15381;SDS011;7789;51.364;12.358;2023-06-10T13:51:01;6.22;;;3.00;;
15381;SDS011;7789;51.364;12.358;2023-06-10T13:56:10;7.88;;;2.85;;
15381;SDS011;7789;51.364;12.358;2023-06-10T14:01:14;4.25;;;2.85;;
15381;SDS011;7789;51.364;12.358;2023-06-10T14:06:22;3.15;;;2.85;;
15381;SDS011;7789;51.364;12.358;2023-06-10T14:11:30;3.03;;;2.20;;
15381;SDS011;7789;51.364;12.358;2023-06-10T14:16:36;2.30;;;2.08;;
15381;SDS011;7789;51.364;12.358;2023-06-10T14:21:44;2.35;;;2.10;;
15381;SDS011;7789;51.364;12.358;2023-06-10T14:26:51;3.17;;;2.25;;
15381;SDS011;7789;51.364;12.358;2023-06-10T14:31:56;2.47;;;2.05;;
15381;SDS011;7789;51.364;12.358;2023-06-10T14:37:00;2.22;;;2.03;;
15381;SDS011;7789;51.364;12.358;2023-06-10T14:42:10;3.75;;;2.25;;
15381;SDS011;7789;51.364;12.358;2023-06-10T14:47:15;3.10;;;2.80;;
15381;SDS011;7789;51.364;12.358;2023-06-10T14:52:21;4.18;;;3.35;;
15381;SDS011;7789;51.364;12.358;2023-06-10T14:57:27;4.70;;;3.83;;
15381;SDS011;7789;51.364;12.358;2023-06-10T15:02:53;6.50;;;3.90;;
15381;SDS011;7789;51.364;12.358;2023-06-10T15:08:19;5.78;;;4.25;;
15381;SDS011;7789;51.364;12.358;2023-06-10T15:13:24;5.22;;;4.72;;
15381;SDS011;7789;51.364;12.358;2023-06-10T15:18:31;4.80;;;4.32;;
15381;SDS011;7789;51.364;12.358;2023-06-10T15:23:38;5.30;;;4.80;;
15381;SDS011;7789;51.364;12.358;2023-06-10T15:28:44;6.90;;;4.80;;
15381;SDS011;7789;51.364;12.358;2023-06-10T15:33:51;6.38;;;4.32;;
15381;SDS011;7789;51.364;12.358;2023-06-10T15:38:58;7.80;;;4.68;;
15381;SDS011;7789;51.364;12.358;2023-06-10T15:44:08;5.10;;;4.60;;
15381;SDS011;7789;51.364;12.358;2023-06-10T15:49:13;6.85;;;5.38;;
15381;SDS011;7789;51.364;12.358;2023-06-10T15:54:17;7.00;;;4.80;;
15381;SDS011;7789;51.364;12.358;2023-06-10T15:59:25;5.35;;;4.80;;
15381;SDS011;7789;51.364;12.358;2023-06-10T16:04:30;6.47;;;4.20;;
15381;SDS011;7789;51.364;12.358;2023-06-10T16:09:34;9.20;;;5.18;;
15381;SDS011;7789;51.364;12.358;2023-06-10T16:14:39;8.27;;;4.88;;
15381;SDS011;7789;51.364;12.358;2023-06-10T16:19:44;7.30;;;4.70;;
15381;SDS011;7789;51.364;12.358;2023-06-10T16:24:48;6.25;;;4.78;;
15381;SDS011;7789;51.364;12.358;2023-06-10T16:29:55;6.18;;;4.55;;
15381;SDS011;7789;51.364;12.358;2023-06-10T16:35:06;5.70;;;5.20;;
15381;SDS011;7789;51.364;12.358;2023-06-10T16:40:23;5.18;;;4.22;;
15381;SDS011;7789;51.364;12.358;2023-06-10T16:45:30;6.90;;;4.90;;
15381;SDS011;7789;51.364;12.358;2023-06-10T16:50:36;6.45;;;4.97;;
15381;SDS011;7789;51.364;12.358;2023-06-10T16:55:41;6.93;;;4.55;;
15381;SDS011;7789;51.364;12.358;2023-06-10T17:00:50;6.70;;;4.47;;
15381;SDS011;7789;51.364;12.358;2023-06-10T17:05:55;5.07;;;4.57;;
15381;SDS011;7789;51.364;12.358;2023-06-10T17:10:59;5.32;;;4.82;;
15381;SDS011;7789;51.364;12.358;2023-06-10T17:16:08;5.57;;;4.95;;
15381;SDS011;7789;51.364;12.358;2023-06-10T17:21:20;5.03;;;4.43;;
15381;SDS011;7789;51.364;12.358;2023-06-10T17:26:24;6.30;;;4.90;;
15381;SDS011;7789;51.364;12.358;2023-06-10T17:31:35;7.20;;;4.57;;
15381;SDS011;7789;51.364;12.358;2023-06-10T17:36:39;6.55;;;4.35;;
15381;SDS011;7789;51.364;12.358;2023-06-10T17:41:50;5.32;;;4.57;;
15381;SDS011;7789;51.364;12.358;2023-06-10T17:46:56;5.72;;;5.20;;
15381;SDS011;7789;51.364;12.358;2023-06-10T17:52:00;5.30;;;4.80;;
15381;SDS011;7789;51.364;12.358;2023-06-10T17:57:04;5.68;;;5.00;;
15381;SDS011;7789;51.364;12.358;2023-06-10T18:02:13;5.57;;;4.35;;
15381;SDS011;7789;51.364;12.358;2023-06-10T18:07:20;6.53;;;4.68;;
15381;SDS011;7789;51.364;12.358;2023-06-10T18:12:24;9.10;;;4.97;;
15381;SDS011;7789;51.364;12.358;2023-06-10T18:17:32;7.47;;;5.35;;
15381;SDS011;7789;51.364;12.358;2023-06-10T18:22:37;7.45;;;5.82;;
15381;SDS011;7789;51.364;12.358;2023-06-10T18:27:41;7.07;;;5.30;;
15381;SDS011;7789;51.364;12.358;2023-06-10T18:32:49;6.97;;;5.60;;
15381;SDS011;7789;51.364;12.358;2023-06-10T18:37:53;5.28;;;4.75;;
15381;SDS011;7789;51.364;12.358;2023-06-10T18:42:59;5.35;;;4.85;;
15381;SDS011;7789;51.364;12.358;2023-06-10T18:48:06;5.10;;;4.57;;
15381;SDS011;7789;51.364;12.358;2023-06-10T18:53:11;6.80;;;4.93;;
15381;SDS011;7789;51.364;12.358;2023-06-10T18:58:18;9.75;;;5.13;;
15381;SDS011;7789;51.364;12.358;2023-06-10T19:03:22;7.10;;;5.40;;
15381;SDS011;7789;51.364;12.358;2023-06-10T19:08:31;5.65;;;5.07;;
15381;SDS011;7789;51.364;12.358;2023-06-10T19:13:35;7.93;;;5.60;;
15381;SDS011;7789;51.364;12.358;2023-06-10T19:18:40;6.55;;;5.35;;
15381;SDS011;7789;51.364;12.358;2023-06-10T19:23:45;7.13;;;5.63;;
15381;SDS011;7789;51.364;12.358;2023-06-10T19:28:49;6.93;;;5.88;;
15381;SDS011;7789;51.364;12.358;2023-06-10T19:34:15;8.38;;;5.90;;
15381;SDS011;7789;51.364;12.358;2023-06-10T19:39:18;6.22;;;5.10;;
15381;SDS011;7789;51.364;12.358;2023-06-10T19:44:24;6.78;;;5.03;;
15381;SDS011;7789;51.364;12.358;2023-06-10T19:49:31;6.57;;;5.43;;
15381;SDS011;7789;51.364;12.358;2023-06-10T19:54:38;6.60;;;6.00;;
15381;SDS011;7789;51.364;12.358;2023-06-10T19:59:45;6.95;;;5.30;;
15381;SDS011;7789;51.364;12.358;2023-06-10T20:05:06;6.63;;;5.93;;
15381;SDS011;7789;51.364;12.358;2023-06-10T20:10:11;8.13;;;5.70;;
15381;SDS011;7789;51.364;12.358;2023-06-10T20:15:17;6.45;;;5.80;;
15381;SDS011;7789;51.364;12.358;2023-06-10T20:20:31;7.00;;;6.30;;
15381;SDS011;7789;51.364;12.358;2023-06-10T20:25:49;7.60;;;6.75;;
15381;SDS011;7789;51.364;12.358;2023-06-10T20:30:54;6.72;;;5.90;;
15381;SDS011;7789;51.364;12.358;2023-06-10T20:36:05;10.00;;;6.70;;
15381;SDS011;7789;51.364;12.358;2023-06-10T20:41:13;8.32;;;7.13;;
15381;SDS011;7789;51.364;12.358;2023-06-10T20:46:18;7.28;;;6.57;;
15381;SDS011;7789;51.364;12.358;2023-06-10T20:51:24;6.53;;;5.93;;
15381;SDS011;7789;51.364;12.358;2023-06-10T20:56:27;6.20;;;5.60;;
15381;SDS011;7789;51.364;12.358;2023-06-10T21:01:31;6.63;;;5.97;;
15381;SDS011;7789;51.364;12.358;2023-06-10T21:06:37;7.07;;;5.55;;
15381;SDS011;7789;51.364;12.358;2023-06-10T21:11:41;7.20;;;5.43;;
15381;SDS011;7789;51.364;12.358;2023-06-10T21:16:45;7.53;;;5.90;;
15381;SDS011;7789;51.364;12.358;2023-06-10T21:21:50;8.85;;;5.30;;
15381;SDS011;7789;51.364;12.358;2023-06-10T21:26:55;8.52;;;5.30;;
15381;SDS011;7789;51.364;12.358;2023-06-10T21:32:01;6.68;;;5.30;;
15381;SDS011;7789;51.364;12.358;2023-06-10T21:37:06;5.80;;;5.30;;
15381;SDS011;7789;51.364;12.358;2023-06-10T21:42:10;6.00;;;4.90;;
15381;SDS011;7789;51.364;12.358;2023-06-10T21:47:13;7.28;;;4.72;;
15381;SDS011;7789;51.364;12.358;2023-06-10T21:52:19;8.20;;;5.15;;
15381;SDS011;7789;51.364;12.358;2023-06-10T21:57:23;7.68;;;5.60;;
15381;SDS011;7789;51.364;12.358;2023-06-10T22:02:27;11.07;;;5.72;;
15381;SDS011;7789;51.364;12.358;2023-06-10T22:07:33;7.78;;;4.97;;
15381;SDS011;7789;51.364;12.358;2023-06-10T22:12:36;6.38;;;5.30;;
15381;SDS011;7789;51.364;12.358;2023-06-10T22:17:40;7.32;;;5.10;;
15381;SDS011;7789;51.364;12.358;2023-06-10T22:22:46;7.32;;;4.85;;
15381;SDS011;7789;51.364;12.358;2023-06-10T22:27:50;6.70;;;5.20;;
15381;SDS011;7789;51.364;12.358;2023-06-10T22:32:54;6.32;;;5.72;;
15381;SDS011;7789;51.364;12.358;2023-06-10T22:37:59;12.52;;;5.30;;
15381;SDS011;7789;51.364;12.358;2023-06-10T22:43:03;7.85;;;4.72;;
15381;SDS011;7789;51.364;12.358;2023-06-10T22:48:07;5.18;;;4.68;;
15381;SDS011;7789;51.364;12.358;2023-06-10T22:53:12;8.57;;;5.03;;
15381;SDS011;7789;51.364;12.358;2023-06-10T22:58:15;7.70;;;4.72;;
15381;SDS011;7789;51.364;12.358;2023-06-10T23:03:21;7.50;;;4.65;;
15381;SDS011;7789;51.364;12.358;2023-06-10T23:08:27;7.28;;;4.50;;
15381;SDS011;7789;51.364;12.358;2023-06-10T23:13:31;6.38;;;4.65;;
15381;SDS011;7789;51.364;12.358;2023-06-10T23:18:38;6.03;;;4.82;;
15381;SDS011;7789;51.364;12.358;2023-06-10T23:23:45;5.47;;;4.75;;
15381;SDS011;7789;51.364;12.358;2023-06-10T23:28:53;9.75;;;4.40;;
15381;SDS011;7789;51.364;12.358;2023-06-10T23:33:56;5.25;;;4.00;;
15381;SDS011;7789;51.364;12.358;2023-06-10T23:39:02;7.82;;;4.90;;
15381;SDS011;7789;51.364;12.358;2023-06-10T23:44:05;12.73;;;5.50;;
15381;SDS011;7789;51.364;12.358;2023-06-10T23:49:09;7.15;;;4.97;;
15381;SDS011;7789;51.364;12.358;2023-06-10T23:54:15;8.30;;;5.22;;
15381;SDS011;7789;51.364;12.358;2023-06-10T23:59:19;7.40;;;4.72;;
